Time;durP1;ratioP1;P1;durP2;ratioP2;P2;SDS_P1;SDS_P2;PMS_P1;PMS_P2;Temp;Humidity;BMP_temperature;BMP_pressure;BME280_temperature;BME280_humidity;BME280_pressure;Samples;Min_cycle;Max_cycle;Signal;HPM_P1;HPM_P2
2021/08/25 00:00:00;;;;;;;6.42;3.83;;;;;;;10.08;74.03;101796.37;1769889;80;20922;-75
2021/08/25 00:02:26;;;;;;;5.33;3.58;;;;;;;10.04;74.17;101798.07;1769070;80;21350;-75
2021/08/25 00:04:54;;;;;;;5.37;4.03;;;;;;;10.01;74.20;101792.89;1769863;80;20906;-75
2021/08/25 00:07:27;;;;;;;5.20;4.20;;;;;;;9.98;74.19;101792.87;1769864;80;21427;-75
2021/08/25 00:09:54;;;;;;;8.10;4.40;;;;;;;9.92;74.18;101788.96;1769323;81;21492;-75
2021/08/25 00:12:20;;;;;;;12.33;4.90;;;;;;;9.88;74.24;101791.95;1769988;80;21723;-75
2021/08/25 00:14:48;;;;;;;6.90;4.55;;;;;;;9.85;74.24;101785.94;1769721;80;20933;-75
2021/08/25 00:17:15;;;;;;;6.33;4.60;;;;;;;9.82;74.24;101785.92;1773611;80;21819;-75
2021/08/25 00:19:41;;;;;;;4.62;3.15;;;;;;;9.66;73.83;101784.09;1775258;80;21508;-75
2021/08/25 00:22:11;;;;;;;4.83;3.33;;;;;;;9.62;74.18;101787.08;1774635;80;21807;-75
2021/08/25 00:24:36;;;;;;;6.62;3.27;;;;;;;9.58;74.17;101783.61;1774687;80;21477;-75
2021/08/25 00:27:03;;;;;;;4.75;3.65;;;;;;;9.56;74.32;101778.00;1774964;80;20886;-75
2021/08/25 00:29:35;;;;;;;3.87;2.67;;;;;;;9.54;74.33;101777.13;1774355;80;21359;-75
2021/08/25 00:32:02;;;;;;;4.65;3.52;;;;;;;9.45;74.35;101775.34;1774860;80;20945;-75
2021/08/25 00:34:28;;;;;;;5.85;3.55;;;;;;;9.42;74.39;101771.45;1775003;80;27932;-75
2021/08/25 00:36:55;;;;;;;5.60;3.87;;;;;;;9.41;74.47;101773.59;1750163;81;20890;-75
2021/08/25 00:39:21;;;;;;;5.10;4.00;;;;;;;9.39;74.56;101770.13;1775036;80;20890;-75
2021/08/25 00:42:00;;;;;;;6.62;4.50;;;;;;;9.36;74.45;101766.23;1774902;80;21726;-75
2021/08/25 00:44:27;;;;;;;7.00;3.70;;;;;;;9.34;74.60;101764.53;1774869;80;21496;-75
2021/08/25 00:46:54;;;;;;;7.75;4.47;;;;;;;9.28;74.48;101760.19;1778387;79;21366;-75
2021/08/25 00:49:23;;;;;;;6.45;4.65;;;;;;;9.27;74.66;101754.16;1774971;80;21358;-75
2021/08/25 00:51:50;;;;;;;6.92;4.45;;;;;;;9.26;74.66;101758.02;1774663;80;21346;-75
2021/08/25 00:54:17;;;;;;;6.22;4.20;;;;;;;9.23;74.71;101756.70;1774997;80;21493;-75
2021/08/25 00:56:48;;;;;;;;;;;;;;;9.21;74.71;101750.23;1777010;80;21469;-75
2021/08/25 00:59:17;;;;;;;6.35;4.47;;;;;;;9.18;75.08;101757.09;1773245;80;20554;-75
2021/08/25 01:02:13;;;;;;;7.67;4.37;;;;;;;9.16;74.80;101748.47;1762865;80;21355;-75
2021/08/25 01:04:52;;;;;;;6.45;4.35;;;;;;;9.10;74.68;101743.27;1774853;80;21719;-75
2021/08/25 01:07:23;;;;;;;6.62;3.90;;;;;;;9.06;74.78;101737.64;1773004;80;20893;-75
2021/08/25 01:09:52;;;;;;;5.97;4.20;;;;;;;9.02;74.83;101736.75;1774566;80;20917;-75
2021/08/25 01:12:21;;;;;;;4.08;3.50;;;;;;;9.02;74.92;101734.59;1774934;80;21389;-75
2021/08/25 01:14:48;;;;;;;7.87;4.35;;;;;;;9.00;74.90;101742.32;1774606;80;21359;-75
2021/08/25 01:17:24;;;;;;;7.55;4.53;;;;;;;8.96;74.86;101739.27;1774270;80;21267;-75
2021/08/25 01:19:59;;;;;;;8.78;3.83;;;;;;;8.95;74.99;101737.12;1775149;80;20874;-75
2021/08/25 01:22:25;;;;;;;4.95;3.83;;;;;;;8.93;74.98;101729.80;1774569;80;21394;-75
2021/08/25 01:24:53;;;;;;;;;;;;;;;8.89;74.94;101732.33;1718793;80;318801;-75
2021/08/25 01:27:23;;;;;;;5.55;2.80;;;;;;;8.83;75.17;101729.30;1692411;82;20099;-75
2021/08/25 01:29:50;;;;;;;5.70;3.10;;;;;;;8.78;74.95;101725.82;1648956;87;21809;-75
2021/08/25 01:32:19;;;;;;;5.37;2.72;;;;;;;8.76;75.06;101726.23;1674912;85;21539;-75
2021/08/25 01:34:57;;;;;;;6.85;3.45;;;;;;;8.74;75.07;101722.77;1674781;85;20884;-75
2021/08/25 01:37:27;;;;;;;7.70;3.60;;;;;;;8.73;75.15;101722.33;1674483;85;21256;-75
2021/08/25 01:39:54;;;;;;;8.90;4.15;;;;;;;8.70;75.11;101722.30;1674915;85;21401;-75
2021/08/25 01:42:21;;;;;;;5.30;4.15;;;;;;;8.66;74.91;101710.66;1674450;85;20901;-75
2021/08/25 01:44:50;;;;;;;6.53;4.20;;;;;;;8.60;75.11;101716.61;1647839;85;20959;-75
2021/08/25 01:47:18;;;;;;;8.15;5.30;;;;;;;8.56;75.19;101707.13;1623372;87;20941;-75
2021/08/25 01:49:45;;;;;;;7.15;3.92;;;;;;;8.55;75.29;101701.10;1665247;85;20889;-75
2021/08/25 01:52:16;;;;;;;7.30;4.17;;;;;;;8.54;75.26;101706.24;1674912;85;20968;-75
2021/08/25 01:54:48;;;;;;;7.87;4.37;;;;;;;8.52;75.21;101706.66;1675018;85;20968;-75
2021/08/25 01:57:16;;;;;;;4.50;3.58;;;;;;;8.48;75.22;101698.02;1675085;85;20920;-75
2021/08/25 01:59:42;;;;;;;4.35;3.30;;;;;;;8.45;75.30;101698.42;1674813;85;20948;-75
2021/08/25 02:02:08;;;;;;;4.58;3.22;;;;;;;8.44;75.41;101698.84;1674843;85;20909;-75
2021/08/25 02:04:37;;;;;;;6.90;3.52;;;;;;;8.43;75.38;101689.80;1674829;85;20932;-75
2021/08/25 02:07:04;;;;;;;5.45;3.47;;;;;;;8.41;75.43;101683.77;1672821;85;20876;-75
2021/08/25 02:09:31;;;;;;;5.28;3.15;;;;;;;8.38;75.20;101685.03;1674789;85;20909;-75
2021/08/25 02:11:57;;;;;;;4.30;3.90;;;;;;;8.35;75.40;101684.58;1677129;84;20932;-75
2021/08/25 02:14:24;;;;;;;6.58;3.12;;;;;;;8.29;75.35;101682.80;1674976;85;20913;-75
2021/08/25 02:16:50;;;;;;;3.87;3.02;;;;;;;8.27;75.45;101682.34;1672921;84;20965;-75
2021/08/25 02:19:17;;;;;;;7.40;3.50;;;;;;;8.25;75.42;101685.32;1670544;85;20933;-75
2021/08/25 02:21:43;;;;;;;6.37;4.00;;;;;;;8.21;75.54;101672.83;1670952;85;20952;-75
2021/08/25 02:24:10;;;;;;;5.70;3.90;;;;;;;8.16;75.34;101671.05;1670988;85;20865;-75
2021/08/25 02:26:36;;;;;;;7.33;3.95;;;;;;;8.13;75.44;101676.17;1670954;85;20897;-75
2021/08/25 02:29:04;;;;;;;7.00;4.33;;;;;;;8.10;75.56;101670.56;1669687;85;21027;-75
2021/08/25 02:31:30;;;;;;;6.00;4.12;;;;;;;8.10;75.59;101670.98;1676654;82;21107;-75
2021/08/25 02:33:57;;;;;;;6.50;4.83;;;;;;;8.03;75.47;101664.90;1668437;84;26530;-75
2021/08/25 02:36:23;;;;;;;6.45;4.60;;;;;;;8.03;75.67;101659.75;1668364;85;21031;-75
2021/08/25 02:38:50;;;;;;;6.35;4.72;;;;;;;8.03;75.72;101657.59;1668476;85;21099;-75
2021/08/25 02:41:19;;;;;;;11.45;4.55;;;;;;;8.03;75.73;101656.30;1668130;85;21051;-75
2021/08/25 02:43:45;;;;;;;9.40;4.92;;;;;;;8.01;75.66;101653.71;1670711;85;21417;-75
2021/08/25 02:46:12;;;;;;;7.60;4.08;;;;;;;8.00;75.72;101645.97;1670974;85;20925;-75
2021/08/25 02:48:40;;;;;;;6.28;3.80;;;;;;;7.96;75.69;101651.51;1670233;85;20957;-75
2021/08/25 02:51:07;;;;;;;5.55;3.40;;;;;;;7.94;75.74;101650.20;1670469;85;20964;-75
2021/08/25 02:53:33;;;;;;;6.22;3.90;;;;;;;7.93;75.67;101647.61;1671076;85;20948;-75
2021/08/25 02:55:59;;;;;;;5.58;4.05;;;;;;;7.91;75.83;101646.30;1671014;85;20960;-75
2021/08/25 02:58:26;;;;;;;5.10;4.50;;;;;;;7.89;75.85;101641.98;1670698;85;20909;-75
2021/08/25 03:00:54;;;;;;;7.22;4.05;;;;;;;7.83;75.63;101644.48;1670934;85;20893;-75
2021/08/25 03:03:20;;;;;;;7.35;3.95;;;;;;;7.76;75.49;101644.87;1670688;85;20912;-75
2021/08/25 03:05:46;;;;;;;4.33;3.22;;;;;;;7.69;75.74;101637.91;1671009;85;20932;-75
2021/08/25 03:08:13;;;;;;;8.63;4.60;;;;;;;7.70;75.84;101635.78;1670753;85;20960;-75
2021/08/25 03:10:39;;;;;;;5.97;4.75;;;;;;;7.70;75.86;101635.78;1643808;86;20889;-75
2021/08/25 03:13:09;;;;;;;7.08;4.85;;;;;;;7.65;75.69;101632.29;1653694;85;20952;-75
2021/08/25 03:15:36;;;;;;;6.37;3.95;;;;;;;7.61;75.76;101633.09;1670904;85;20949;-75
2021/08/25 03:18:03;;;;;;;5.55;3.50;;;;;;;7.52;75.53;101626.55;1662727;85;22554;-75
2021/08/25 03:20:29;;;;;;;4.83;3.58;;;;;;;7.48;75.83;101624.35;1660586;85;20913;-75
2021/08/25 03:22:57;;;;;;;4.65;4.05;;;;;;;7.46;75.71;101623.89;1664795;86;20953;-75
2021/08/25 03:25:23;;;;;;;7.05;3.95;;;;;;;7.44;75.97;101619.14;1664828;86;20909;-75
2021/08/25 03:27:49;;;;;;;5.20;3.83;;;;;;;7.45;76.04;101620.88;1664422;86;20917;-75
2021/08/25 03:30:16;;;;;;;5.47;3.98;;;;;;;7.45;76.05;101617.88;1664691;86;20949;-75
2021/08/25 03:32:42;;;;;;;5.75;4.20;;;;;;;7.43;76.02;101611.84;1664827;86;20881;-75
2021/08/25 03:35:09;;;;;;;5.58;4.03;;;;;;;7.43;76.04;101613.55;1664473;86;20953;-75
2021/08/25 03:37:38;;;;;;;6.28;4.45;;;;;;;7.41;76.14;101613.95;1664754;86;20933;-75
2021/08/25 03:40:08;;;;;;;10.82;3.98;;;;;;;7.39;76.13;101606.64;1670315;84;20879;-75
2021/08/25 03:42:34;;;;;;;6.47;4.40;;;;;;;7.35;76.05;101603.58;1664815;86;20952;-75
2021/08/25 03:45:01;;;;;;;6.25;4.17;;;;;;;7.36;76.17;101600.17;1664582;86;20909;-75
2021/08/25 03:47:29;;;;;;;6.05;4.08;;;;;;;7.33;76.13;101603.56;1661433;84;20932;-75
2021/08/25 03:49:55;;;;;;;4.40;3.10;;;;;;;7.28;75.91;101600.93;1685011;84;20941;-75
2021/08/25 03:52:21;;;;;;;5.15;3.52;;;;;;;7.21;76.08;101601.73;1670015;85;21576;-75
2021/08/25 03:54:48;;;;;;;6.25;2.98;;;;;;;7.20;76.16;101605.56;1662572;86;20945;-75
2021/08/25 03:57:22;;;;;;;4.45;3.15;;;;;;;7.19;76.16;101599.98;1660492;86;20949;-75
2021/08/25 03:59:48;;;;;;;5.47;3.10;;;;;;;7.11;75.86;101599.00;1662847;86;20948;-75
2021/08/25 04:02:15;;;;;;;5.83;3.40;;;;;;;7.00;75.89;101588.98;1656013;86;26585;-75
2021/08/25 04:04:43;;;;;;;5.67;3.90;;;;;;;7.03;76.20;101607.89;1662619;86;20937;-75
2021/08/25 04:07:09;;;;;;;5.53;3.75;;;;;;;7.07;76.24;101605.81;1661527;86;20921;-75
2021/08/25 04:09:36;;;;;;;5.80;4.00;;;;;;;7.06;76.27;101605.37;1661594;86;21391;-75
2021/08/25 04:12:04;;;;;;;5.33;3.95;;;;;;;7.08;76.25;101599.83;1665120;84;20970;-75
2021/08/25 04:14:30;;;;;;;6.97;4.00;;;;;;;7.11;76.30;101600.29;1657738;86;20921;-75
2021/08/25 04:16:56;;;;;;;6.22;4.60;;;;;;;7.10;76.33;101602.00;1659773;85;21003;-75
2021/08/25 04:19:23;;;;;;;5.05;4.12;;;;;;;7.09;76.36;101598.98;1693504;84;20905;-75
2021/08/25 04:21:49;;;;;;;4.83;3.55;;;;;;;7.10;76.37;101595.98;1694742;84;20890;-75
2021/08/25 04:24:15;;;;;;;5.30;3.27;;;;;;;7.12;76.51;101595.59;1694415;84;20917;-75
2021/08/25 04:26:45;;;;;;;5.30;3.22;;;;;;;7.11;76.31;101593.44;1694545;84;20946;-75
2021/08/25 04:29:11;;;;;;;3.27;2.83;;;;;;;7.13;76.47;101590.89;1695644;83;20873;-75
2021/08/25 04:31:37;;;;;;;3.45;2.85;;;;;;;7.07;76.02;101594.66;1692082;84;20938;-75
2021/08/25 04:34:04;;;;;;;3.95;3.30;;;;;;;6.93;75.99;101590.19;1695821;83;20917;-75
2021/08/25 04:36:30;;;;;;;4.35;3.33;;;;;;;6.91;76.12;101591.00;1697259;84;20944;-75
2021/08/25 04:38:56;;;;;;;4.22;3.15;;;;;;;6.94;76.48;101593.62;1697042;84;20909;-75
2021/08/25 04:41:23;;;;;;;3.62;3.15;;;;;;;7.00;76.65;101583.42;1697228;84;20941;-75
2021/08/25 04:43:49;;;;;;;6.62;3.65;;;;;;;7.04;76.44;101584.33;1696925;84;20949;-75
2021/08/25 04:46:17;;;;;;;4.90;3.83;;;;;;;7.08;76.66;101580.95;1697349;84;20893;-75
2021/08/25 04:48:43;;;;;;;7.22;3.72;;;;;;;7.13;76.66;101578.03;1697452;84;20932;-75
2021/08/25 04:51:11;;;;;;;4.37;3.87;;;;;;;7.17;76.58;101569.51;1697015;84;20912;-75
2021/08/25 04:53:39;;;;;;;4.55;3.90;;;;;;;7.20;76.64;101569.13;1697223;84;20866;-75
2021/08/25 04:56:05;;;;;;;6.92;3.62;;;;;;;7.20;76.38;101567.84;1697080;84;20861;-75
2021/08/25 04:58:36;;;;;;;5.15;4.00;;;;;;;7.21;76.61;101560.56;1697426;84;20962;-75
2021/08/25 05:01:05;;;;;;;5.10;4.40;;;;;;;7.25;76.70;101558.90;1697015;84;20905;-75
2021/08/25 05:03:34;;;;;;;4.45;3.87;;;;;;;7.26;76.47;101555.06;1696732;84;21003;-75
2021/08/25 05:06:07;;;;;;;6.15;3.50;;;;;;;7.30;76.68;101553.36;1697044;84;20905;-75
2021/08/25 05:08:33;;;;;;;5.28;3.52;;;;;;;7.37;76.54;101556.88;1696565;84;20936;-75
2021/08/25 05:11:00;;;;;;;6.05;4.53;;;;;;;7.43;76.75;101547.94;1684706;83;20948;-75
2021/08/25 05:13:26;;;;;;;5.12;4.05;;;;;;;7.60;76.89;101543.85;1705913;83;20952;-75
2021/08/25 05:15:52;;;;;;;4.10;3.17;;;;;;;7.93;77.18;101542.89;1693383;83;20869;-75
2021/08/25 05:18:18;;;;;;;6.97;4.15;;;;;;;8.32;76.98;101545.81;1696076;82;21393;-75
2021/08/25 05:20:45;;;;;;;6.95;4.90;;;;;;;8.81;77.33;101540.16;1698389;83;20897;-75
2021/08/25 05:23:11;;;;;;;4.90;4.12;;;;;;;9.37;77.14;101539.95;1706175;83;20945;-75
2021/08/25 05:25:38;;;;;;;6.33;4.95;;;;;;;9.74;76.99;101535.77;1696290;83;20898;-75
2021/08/25 05:28:05;;;;;;;5.40;4.35;;;;;;;10.30;76.97;101536.27;1709412;83;20940;-75
2021/08/25 05:30:32;;;;;;;10.23;5.08;;;;;;;10.80;77.03;101535.76;1709434;83;20898;-75
2021/08/25 05:32:58;;;;;;;7.78;4.87;;;;;;;11.31;76.79;101542.05;1712485;83;20902;-75
2021/08/25 05:35:25;;;;;;;8.40;5.50;;;;;;;11.90;77.29;101540.02;1700321;83;20898;-75
2021/08/25 05:37:53;;;;;;;8.70;5.90;;;;;;;12.39;76.51;101544.80;1702008;83;20940;-75
2021/08/25 05:40:19;;;;;;;10.20;6.10;;;;;;;12.67;76.33;101541.49;1708487;83;20938;-75
2021/08/25 05:42:46;;;;;;;8.23;6.00;;;;;;;13.00;76.33;101537.66;1703589;83;20941;-75
2021/08/25 05:45:14;;;;;;;7.47;6.12;;;;;;;13.30;76.36;101537.77;1696135;83;20948;-75
2021/08/25 05:47:40;;;;;;;9.73;5.95;;;;;;;13.71;76.73;101524.64;1692254;83;20945;-75
2021/08/25 05:50:08;;;;;;;10.25;5.62;;;;;;;14.20;76.87;101525.59;1694649;83;20901;-75
2021/08/25 05:52:41;;;;;;;7.78;5.87;;;;;;;14.63;76.60;101508.37;1708250;83;20934;-75
2021/08/25 05:55:07;;;;;;;7.40;5.90;;;;;;;15.08;76.65;101513.12;1695193;83;21611;-75
2021/08/25 05:57:34;;;;;;;6.97;5.28;;;;;;;15.42;76.42;101506.77;1699347;83;20948;-75
2021/08/25 06:00:00;;;;;;;7.47;6.00;;;;;;;15.66;76.09;101506.23;1700291;83;20972;-75
2021/08/25 06:02:26;;;;;;;9.33;7.00;;;;;;;15.70;75.76;101494.83;1701685;83;21756;-75
2021/08/25 06:04:54;;;;;;;7.75;5.60;;;;;;;15.68;75.63;101497.06;1698399;83;20908;-75
2021/08/25 06:07:20;;;;;;;8.95;6.30;;;;;;;15.88;76.02;101496.16;1701438;83;20902;-75
2021/08/25 06:09:47;;;;;;;10.90;6.35;;;;;;;16.22;76.17;101490.50;1690459;83;20924;-75
2021/08/25 06:12:13;;;;;;;8.25;5.95;;;;;;;16.66;76.31;101497.63;1704801;83;20910;-75
2021/08/25 06:14:39;;;;;;;7.50;5.75;;;;;;;17.03;75.82;101500.08;1692999;83;20870;-75
2021/08/25 06:17:06;;;;;;;7.08;6.37;;;;;;;17.15;75.51;101499.73;1697149;83;20917;-75
2021/08/25 06:19:33;;;;;;;9.15;6.53;;;;;;;17.16;75.59;101500.55;1673974;84;21441;-75
2021/08/25 06:22:00;;;;;;;8.08;6.25;;;;;;;17.50;75.68;101506.50;1675218;84;20957;-75
2021/08/25 06:24:26;;;;;;;9.65;6.28;;;;;;;17.57;75.20;101507.17;1675054;84;20873;-75
2021/08/25 06:26:54;;;;;;;7.92;6.03;;;;;;;17.41;75.15;101508.08;1672720;84;20968;-75
2021/08/25 06:29:20;;;;;;;8.15;6.40;;;;;;;17.53;75.50;101500.32;1677479;84;20886;-75
2021/08/25 06:31:47;;;;;;;9.90;7.35;;;;;;;17.72;75.44;101498.00;1677494;84;20920;-75
2021/08/25 06:34:14;;;;;;;;;;;;;;;17.90;75.22;101492.18;1683569;84;20972;-75
2021/08/25 06:36:40;;;;;;;9.90;8.15;;;;;;;17.93;74.65;101488.61;1661001;85;20689;-75
2021/08/25 06:39:07;;;;;;;11.85;8.45;;;;;;;18.13;75.25;101480.50;1645747;85;20928;-75
2021/08/25 06:41:33;;;;;;;;;;;;;;;18.30;75.06;101475.13;1669026;84;20909;-75
2021/08/25 06:43:59;;;;;;;9.40;7.75;;;;;;;18.53;74.38;101475.19;1683949;83;20135;-75
2021/08/25 06:46:29;;;;;;;11.35;6.87;;;;;;;18.85;75.18;101472.73;1673332;84;20897;-75
2021/08/25 06:48:55;;;;;;;8.98;6.70;;;;;;;19.08;74.94;101470.57;1674344;84;20885;-75
2021/08/25 06:51:22;;;;;;;11.05;7.25;;;;;;;19.30;75.00;101470.13;1682445;84;20957;-75
2021/08/25 06:53:48;;;;;;;8.50;6.97;;;;;;;19.31;74.64;101469.67;1662137;84;20957;-75
2021/08/25 06:56:14;;;;;;;9.50;6.28;;;;;;;19.27;74.68;101464.14;1669184;84;20956;-75
2021/08/25 06:58:40;;;;;;;6.97;5.85;;;;;;;19.39;74.50;101470.23;1678901;84;21555;-75
2021/08/25 07:01:07;;;;;;;8.90;5.53;;;;;;;19.63;74.61;101457.95;1673333;84;20877;-75
2021/08/25 07:03:35;;;;;;;6.62;5.50;;;;;;;19.96;74.50;101457.86;1674192;84;20977;-75
2021/08/25 07:06:03;;;;;;;8.68;6.10;;;;;;;20.34;74.39;101456.67;1667845;84;20894;-75
2021/08/25 07:08:29;;;;;;;;;;;;;;;20.63;74.16;101457.61;1674143;84;20904;-75
2021/08/25 07:10:55;;;;;;;8.88;5.85;;;;;;;20.70;73.14;101454.25;1672634;84;20292;-75
2021/08/25 07:13:21;;;;;;;7.47;4.78;;;;;;;20.83;74.08;101450.97;1686578;83;20893;-75
2021/08/25 07:15:48;;;;;;;7.58;4.85;;;;;;;21.04;74.01;101452.23;1671478;83;20888;-75
2021/08/25 07:18:15;;;;;;;5.67;4.47;;;;;;;21.13;73.87;101447.40;1669582;83;21582;-75
2021/08/25 07:20:41;;;;;;;5.72;4.85;;;;;;;21.20;73.69;101441.39;1667410;84;20935;-75
2021/08/25 07:23:08;;;;;;;10.10;5.35;;;;;;;21.18;73.22;101437.13;1680394;84;20952;-76
2021/08/25 07:25:35;;;;;;;9.28;5.10;;;;;;;21.02;73.11;101444.41;1661396;84;20940;-76
2021/08/25 07:28:01;;;;;;;7.53;4.58;;;;;;;21.05;73.25;101432.44;1687811;84;20890;-76
2021/08/25 07:30:27;;;;;;;4.30;3.85;;;;;;;21.27;73.07;101428.83;1674204;84;20909;-76
2021/08/25 07:32:55;;;;;;;6.00;4.25;;;;;;;21.46;72.93;101428.31;1678798;84;20870;-76
2021/08/25 07:35:24;;;;;;;5.58;3.77;;;;;;;21.52;72.59;101425.39;1675869;84;20930;-76
2021/08/25 07:37:50;;;;;;;4.65;3.42;;;;;;;21.58;72.19;101419.83;1683957;84;20920;-76
2021/08/25 07:40:16;;;;;;;6.53;3.72;;;;;;;21.69;72.23;101420.62;1667214;84;20944;-76
2021/08/25 07:42:44;;;;;;;5.47;3.33;;;;;;;21.79;71.95;101417.45;1670525;84;21022;-76
2021/08/25 07:45:14;;;;;;;4.08;3.67;;;;;;;21.91;71.78;101405.89;1655983;84;20932;-76
2021/08/25 07:47:41;;;;;;;4.58;3.55;;;;;;;21.92;71.42;101404.49;1656111;84;26402;-76
2021/08/25 07:50:08;;;;;;;3.50;2.77;;;;;;;21.92;71.13;101399.69;1657750;84;20931;-76
2021/08/25 07:52:35;;;;;;;4.75;3.75;;;;;;;21.90;71.07;101396.28;1662366;84;20892;-76
2021/08/25 07:55:01;;;;;;;3.98;3.58;;;;;;;21.97;70.93;101391.09;1662688;84;20948;-76
2021/08/25 07:57:27;;;;;;;5.53;3.75;;;;;;;21.98;70.68;101387.06;1661530;84;20952;-76
2021/08/25 07:59:54;;;;;;;3.47;3.12;;;;;;;22.01;70.43;101388.69;1671159;84;20892;-76
2021/08/25 08:02:26;;;;;;;4.62;3.35;;;;;;;21.90;70.05;101387.92;1670773;84;20918;-76
2021/08/25 08:04:53;;;;;;;3.67;2.87;;;;;;;21.75;70.01;101373.78;1673829;84;26607;-76
2021/08/25 08:07:19;;;;;;;3.95;3.33;;;;;;;21.80;70.13;101382.77;1680375;84;20874;-76
2021/08/25 08:09:46;;;;;;;3.55;3.10;;;;;;;21.91;69.60;101374.29;1673969;84;20956;-76
2021/08/25 08:12:13;;;;;;;5.35;3.55;;;;;;;21.90;69.69;101380.48;1675388;84;20991;-76
2021/08/25 08:14:38;;;;;;;;;;;;;;;21.90;69.48;101367.31;1675059;84;21096;-76
2021/08/25 08:17:06;;;;;;;5.33;3.77;;;;;;;21.87;68.56;101368.33;1669151;84;20186;-76
2021/08/25 08:19:33;;;;;;;4.40;3.00;;;;;;;21.84;69.24;101355.78;1672105;83;21559;-79
2021/08/25 08:22:02;;;;;;;5.45;3.95;;;;;;;21.76;68.26;101343.89;1678756;83;22002;-74
2021/08/25 08:24:29;;;;;;;5.40;3.70;;;;;;;21.54;68.61;101340.63;1670307;83;20877;-75
2021/08/25 08:26:58;;;;;;;4.35;3.35;;;;;;;21.41;68.41;101336.44;1671112;85;20964;-75
2021/08/25 08:29:34;;;;;;;4.43;3.40;;;;;;;21.44;68.55;101324.45;1674403;85;20975;-75
2021/08/25 08:32:01;;;;;;;4.85;3.33;;;;;;;21.38;68.10;101322.58;1674829;83;21001;-75
2021/08/25 08:34:28;;;;;;;6.15;3.50;;;;;;;21.07;67.95;101319.28;1675357;83;28260;-75
2021/08/25 08:36:54;;;;;;;4.65;3.22;;;;;;;20.81;67.82;101309.55;1673523;85;20980;-75
2021/08/25 08:39:21;;;;;;;7.53;3.52;;;;;;;20.73;67.82;101312.17;1667353;83;20991;-75
2021/08/25 08:41:48;;;;;;;4.78;3.83;;;;;;;20.64;67.66;101306.03;1674484;85;21558;-75
2021/08/25 08:44:18;;;;;;;6.40;3.90;;;;;;;20.55;67.42;101307.31;1672205;85;21039;-75
2021/08/25 08:46:50;;;;;;;7.45;4.20;;;;;;;20.38;67.11;101304.14;1647716;85;21055;-75
2021/08/25 08:49:17;;;;;;;4.33;3.70;;;;;;;20.62;67.15;101297.38;1676197;85;21471;-75
2021/08/25 08:51:44;;;;;;;3.80;3.40;;;;;;;21.02;66.99;101294.98;1677004;83;21486;-75
2021/08/25 08:54:12;;;;;;;5.78;3.80;;;;;;;20.92;66.80;101297.20;1673114;83;20944;-75
2021/08/25 08:56:40;;;;;;;4.92;3.72;;;;;;;20.74;66.84;101290.23;1674056;85;21488;-75
2021/08/25 08:59:06;;;;;;;6.30;4.17;;;;;;;20.64;66.84;101287.18;1660837;83;22172;-75
2021/08/25 09:01:35;;;;;;;5.80;3.83;;;;;;;20.71;66.70;101281.17;1656080;84;21055;-75
2021/08/25 09:04:02;;;;;;;4.42;3.72;;;;;;;20.87;66.51;101282.58;1660076;84;21489;-75
2021/08/25 09:06:45;;;;;;;6.17;3.75;;;;;;;20.93;66.53;101283.59;1653702;83;21078;-75
2021/08/25 09:09:13;;;;;;;4.85;3.42;;;;;;;21.08;66.43;101267.92;1684759;83;20924;-76
2021/08/25 09:11:54;;;;;;;5.65;3.55;;;;;;;20.83;66.31;101259.53;1686761;83;20952;-76
2021/08/25 09:14:25;;;;;;;4.40;3.33;;;;;;;20.45;66.28;101249.55;1688838;84;20956;-75
2021/08/25 09:17:02;;;;;;;4.35;3.12;;;;;;;20.17;65.94;101246.02;1697503;84;20889;-75
2021/08/25 09:19:38;;;;;;;4.72;3.65;;;;;;;19.89;65.66;101239.00;1714834;82;20932;-75
2021/08/25 09:22:19;;;;;;;4.20;2.90;;;;;;;19.68;65.52;101236.44;1688882;84;21416;-75
2021/08/25 09:24:45;;;;;;;4.42;3.33;;;;;;;19.54;65.21;101234.87;1697757;83;20921;-75
2021/08/25 09:27:16;;;;;;;4.47;3.60;;;;;;;19.31;64.79;101233.65;1697639;83;20912;-75
2021/08/25 09:29:47;;;;;;;5.15;3.55;;;;;;;19.20;64.82;101228.03;1688987;83;20968;-75
2021/08/25 09:32:21;;;;;;;4.60;3.47;;;;;;;19.08;64.20;101234.17;1688619;83;20913;-75
2021/08/25 09:34:55;;;;;;;5.28;3.52;;;;;;;18.90;64.42;101216.58;1698695;82;21373;-75
2021/08/25 09:37:22;;;;;;;5.62;4.05;;;;;;;18.80;64.44;101217.41;1696928;83;21381;-75
2021/08/25 09:39:52;;;;;;;5.03;3.98;;;;;;;18.78;64.29;101213.15;1681616;83;21353;-75
2021/08/25 09:42:21;;;;;;;5.58;4.12;;;;;;;18.75;64.18;101213.27;1518302;93;20991;-75
2021/08/25 09:45:05;;;;;;;5.08;4.40;;;;;;;18.77;64.08;101215.38;1510822;93;21543;-75
2021/08/25 09:47:56;;;;;;;9.13;3.75;;;;;;;18.75;63.92;101208.88;1527042;93;21539;-75
2021/08/25 09:50:26;;;;;;;6.80;4.30;;;;;;;18.72;63.77;101208.16;1531898;93;20979;-75
2021/08/25 09:52:53;;;;;;;6.33;4.05;;;;;;;18.72;63.79;101201.14;1532950;93;21466;-75
2021/08/25 09:55:32;;;;;;;;;;;;;;;18.70;63.56;101198.22;1534188;93;21585;-75
2021/08/25 09:57:59;;;;;;;6.12;4.35;;;;;;;18.69;63.26;101194.75;1530158;93;20457;-75
2021/08/25 10:00:26;;;;;;;4.55;3.45;;;;;;;18.64;63.35;101187.53;1528696;93;21652;-75
2021/08/25 10:02:53;;;;;;;5.28;3.92;;;;;;;18.57;63.35;101177.33;1529072;92;21177;-75
2021/08/25 10:05:27;;;;;;;7.67;4.45;;;;;;;18.54;63.30;101166.52;1536058;92;21031;-75
2021/08/25 10:07:53;;;;;;;7.20;4.00;;;;;;;18.56;63.28;101159.45;1540680;92;20995;-75
2021/08/25 10:10:20;;;;;;;5.33;3.83;;;;;;;18.59;63.14;101152.78;1528377;92;21512;-75
2021/08/25 10:12:50;;;;;;;5.45;4.08;;;;;;;18.62;63.06;101155.31;1533755;88;21092;-75
2021/08/25 10:15:41;;;;;;;5.97;3.42;;;;;;;18.63;62.93;101158.33;1523027;92;21015;-75
2021/08/25 10:18:37;;;;;;;7.12;4.00;;;;;;;18.59;62.86;101154.55;1535808;92;20989;-75
2021/08/25 10:21:00;;;;;;;9.73;4.22;;;;;;;18.54;62.75;101154.73;1534475;92;21479;-75
2021/08/25 10:23:58;;;;;;;5.37;3.83;;;;;;;18.55;62.82;101156.44;1538058;92;20999;-75
2021/08/25 10:26:27;;;;;;;5.67;3.72;;;;;;;18.56;62.67;101137.19;1534380;92;20967;-75
2021/08/25 10:29:10;;;;;;;4.95;3.83;;;;;;;18.60;62.68;101136.19;1525094;92;21496;-75
2021/08/25 10:31:54;;;;;;;4.93;3.73;;;;;;;18.67;62.64;101136.78;1510837;92;21436;-75
2021/08/25 10:34:27;;;;;;;8.18;4.20;;;;;;;18.71;62.54;101135.74;1528822;92;20983;-75
2021/08/25 10:37:20;;;;;;;6.15;3.45;;;;;;;18.79;62.45;101124.45;1531846;92;20982;-75
2021/08/25 10:39:45;;;;;;;5.80;3.85;;;;;;;18.79;62.40;101121.84;1532740;92;20942;-75
2021/08/25 10:42:11;;;;;;;;;;;;;;;18.82;62.26;101115.16;1535863;92;21544;-75
2021/08/25 10:44:42;;;;;;;5.40;3.62;;;;;;;18.83;61.83;101101.99;1535556;92;20205;-75
2021/08/25 10:47:16;;;;;;;4.75;4.22;;;;;;;18.82;62.19;101100.29;1532142;92;21629;-75
2021/08/25 10:49:46;;;;;;;5.28;3.75;;;;;;;18.92;62.15;101102.52;1535883;92;21129;-75
2021/08/25 10:52:21;;;;;;;6.62;4.40;;;;;;;18.98;62.01;101088.70;1531898;92;21682;-75
2021/08/25 10:54:49;;;;;;;5.35;3.92;;;;;;;19.02;61.94;101077.16;1525518;92;21137;-75
2021/08/25 10:57:19;;;;;;;5.92;4.08;;;;;;;19.09;61.96;101068.11;1529625;92;22241;-75
2021/08/25 10:59:46;;;;;;;5.58;3.62;;;;;;;19.14;61.83;101068.77;1523585;92;21080;-75
2021/08/25 11:02:13;;;;;;;4.70;4.15;;;;;;;19.21;61.76;101061.94;1533975;92;21494;-75
2021/08/25 11:04:39;;;;;;;;;;;;;;;19.23;61.72;101053.55;1536865;92;21418;-75
2021/08/25 11:07:10;;;;;;;5.53;4.22;;;;;;;19.23;61.17;101047.84;1532658;92;20515;-75
2021/08/25 11:09:43;;;;;;;7.00;4.30;;;;;;;19.27;61.65;101037.57;1525191;92;21184;-75
2021/08/25 11:12:15;;;;;;;5.78;4.05;;;;;;;19.34;61.61;101030.28;1527471;92;21406;-75
2021/08/25 11:14:52;;;;;;;5.92;3.77;;;;;;;19.40;61.54;101028.23;1524025;92;21035;-75
2021/08/25 11:17:25;;;;;;;5.00;3.95;;;;;;;19.41;61.37;101018.59;1510888;94;21498;-75
2021/08/25 11:20:09;;;;;;;5.40;3.80;;;;;;;19.44;61.34;101011.43;1504178;93;21030;-75
2021/08/25 11:22:44;;;;;;;6.87;3.55;;;;;;;19.45;61.22;101013.59;1501415;93;20991;-75
2021/08/25 11:25:16;;;;;;;4.37;3.95;;;;;;;19.48;61.27;101012.98;1564484;90;20946;-75
2021/08/25 11:27:51;;;;;;;4.75;3.72;;;;;;;19.55;61.19;101006.18;1563322;90;20970;-75
2021/08/25 11:30:27;;;;;;;4.80;3.58;;;;;;;19.55;60.91;101001.78;1566248;90;20917;-75
2021/08/25 11:32:59;;;;;;;6.78;4.17;;;;;;;19.51;61.07;100989.73;1538939;90;21466;-75
2021/08/25 11:35:36;;;;;;;5.25;3.85;;;;;;;19.57;61.07;100982.89;1555688;90;20953;-75
2021/08/25 11:38:09;;;;;;;4.92;3.65;;;;;;;19.66;61.05;100972.42;1553219;90;21663;-75